createdAt,value
2023-09-24T00:02:23.432Z,73.84
2023-09-24T00:04:50.020Z,73.52
2023-09-24T00:07:16.602Z,73.67
2023-09-24T00:09:43.221Z,73.31
2023-09-24T00:12:09.766Z,73.15
2023-09-24T00:14:36.406Z,73.01
2023-09-24T00:17:02.992Z,72.77
2023-09-24T00:19:29.539Z,72.47
2023-09-24T00:21:56.094Z,72.74
2023-09-24T00:24:22.574Z,72.94
2023-09-24T00:26:49.094Z,73.42
2023-09-24T00:29:15.718Z,73.51
2023-09-24T00:31:42.238Z,72.94
2023-09-24T00:34:09.505Z,73.36
2023-09-24T00:36:36.759Z,73.04
2023-09-24T00:39:03.723Z,73.26
2023-09-24T00:41:30.452Z,73.28
2023-09-24T00:43:58.986Z,73.28
2023-09-24T00:46:26.703Z,73.09
2023-09-24T00:48:55.471Z,73.55
2023-09-24T00:51:24.055Z,73.25
2023-09-24T00:53:55.611Z,72.94
2023-09-24T00:56:23.021Z,72.63
2023-09-24T00:58:52.062Z,72.63
2023-09-24T01:01:18.934Z,72.90
2023-09-24T01:03:48.548Z,72.71
2023-09-24T01:06:15.975Z,72.13
2023-09-24T01:08:43.846Z,72.10
2023-09-24T01:11:10.981Z,72.31
2023-09-24T01:13:45.674Z,72.31
2023-09-24T01:16:12.844Z,72.38
2023-09-24T01:18:41.204Z,72.40
2023-09-24T01:21:16.483Z,72.35
2023-09-24T01:23:47.188Z,72.59
2023-09-24T01:26:14.725Z,72.85
2023-09-24T01:28:42.000Z,72.88
2023-09-24T01:31:09.408Z,73.30
2023-09-24T01:33:39.911Z,73.46
2023-09-24T01:36:10.354Z,73.24
2023-09-24T01:38:41.570Z,73.50
2023-09-24T01:41:12.281Z,73.33
2023-09-24T01:43:47.075Z,73.72
2023-09-24T01:46:15.644Z,73.57
2023-09-24T01:48:44.734Z,73.53
2023-09-24T01:51:12.184Z,73.18
2023-09-24T01:53:40.259Z,73.14
2023-09-24T01:56:07.312Z,73.40
2023-09-24T01:58:34.050Z,73.24
2023-09-24T02:01:03.448Z,73.00
2023-09-24T02:03:31.036Z,72.92
2023-09-24T02:05:58.684Z,72.96
2023-09-24T02:08:25.323Z,72.53
2023-09-24T02:10:51.948Z,72.89
2023-09-24T02:13:21.515Z,73.20
2023-09-24T02:15:49.580Z,73.08
2023-09-24T02:18:17.464Z,72.77
2023-09-24T02:20:48.301Z,72.98
2023-09-24T02:23:17.783Z,73.13
2023-09-24T02:25:46.581Z,73.06
2023-09-24T02:28:15.179Z,73.22
2023-09-24T02:30:41.968Z,73.50
2023-09-24T02:33:08.998Z,74.77
2023-09-24T02:35:36.448Z,74.36
2023-09-24T02:38:05.855Z,74.21
2023-09-24T02:40:33.128Z,74.15
2023-09-24T02:43:01.924Z,73.93
2023-09-24T02:45:30.871Z,74.06
2023-09-24T02:47:58.280Z,74.66
2023-09-24T02:50:27.125Z,74.39
2023-09-24T02:52:58.574Z,73.86
2023-09-24T02:55:25.946Z,74.50
2023-09-24T02:57:52.673Z,74.40
2023-09-24T03:00:22.317Z,74.29
2023-09-24T03:02:49.723Z,74.30
2023-09-24T03:05:21.884Z,74.68
2023-09-24T03:07:48.792Z,74.27
2023-09-24T03:10:15.542Z,74.45
2023-09-24T03:12:42.102Z,73.75
2023-09-24T03:15:11.420Z,74.37
2023-09-24T03:17:42.136Z,73.84
2023-09-24T03:20:16.417Z,73.90
2023-09-24T03:22:49.707Z,73.85
2023-09-24T03:25:21.578Z,73.85
2023-09-24T03:27:49.746Z,73.84
2023-09-24T03:30:18.648Z,73.96
2023-09-24T03:32:46.859Z,74.05
2023-09-24T03:35:14.936Z,74.29
2023-09-24T03:37:44.893Z,73.91
2023-09-24T03:40:13.698Z,74.24
2023-09-24T03:42:40.776Z,74.60
2023-09-24T03:45:09.848Z,74.06
2023-09-24T03:47:37.614Z,74.05
2023-09-24T03:50:05.519Z,74.02
2023-09-24T03:52:32.145Z,74.57
2023-09-24T03:55:00.866Z,74.80
2023-09-24T03:57:30.944Z,74.56
2023-09-24T03:59:58.904Z,75.00
2023-09-24T04:02:27.970Z,74.98
2023-09-24T04:04:54.767Z,74.07
2023-09-24T04:07:21.893Z,74.86
2023-09-24T04:09:51.741Z,74.88
2023-09-24T04:12:18.411Z,74.84
2023-09-24T04:14:44.971Z,75.54
2023-09-24T04:17:11.477Z,75.18
2023-09-24T04:19:38.057Z,75.26
2023-09-24T04:22:04.976Z,75.67
2023-09-24T04:24:31.441Z,75.27
2023-09-24T04:26:58.042Z,75.77
2023-09-24T04:29:24.881Z,76.03
2023-09-24T04:31:51.658Z,75.64
2023-09-24T04:34:20.937Z,76.09
2023-09-24T04:36:49.339Z,76.01
2023-09-24T04:39:16.530Z,76.12
2023-09-24T04:41:44.491Z,76.33
2023-09-24T04:44:11.047Z,77.11
2023-09-24T04:46:37.703Z,76.59
2023-09-24T04:49:06.254Z,76.94
2023-09-24T04:51:35.891Z,76.83
2023-09-24T04:54:03.681Z,76.52
2023-09-24T04:56:30.918Z,76.23
2023-09-24T04:58:57.619Z,76.84
2023-09-24T05:01:24.259Z,76.75
2023-09-24T05:03:52.406Z,76.48
2023-09-24T05:06:20.101Z,76.33
2023-09-24T05:08:47.741Z,76.69
2023-09-24T05:11:14.696Z,76.50
2023-09-24T05:13:45.405Z,76.45
2023-09-24T05:16:12.354Z,76.91
2023-09-24T05:18:39.031Z,76.90
2023-09-24T05:21:14.516Z,76.82
2023-09-24T05:23:41.068Z,76.41
2023-09-24T05:26:14.584Z,76.81
2023-09-24T05:28:41.973Z,76.53
2023-09-24T05:31:09.011Z,76.87
2023-09-24T05:33:35.656Z,77.27
2023-09-24T05:36:02.639Z,77.22
2023-09-24T05:38:30.820Z,77.39
2023-09-24T05:40:58.442Z,76.70
2023-09-24T05:43:25.090Z,77.03
2023-09-24T05:45:51.769Z,77.30
2023-09-24T05:48:20.323Z,77.62
2023-09-24T05:50:47.891Z,77.31
2023-09-24T05:53:15.668Z,77.34
2023-09-24T05:55:53.295Z,77.65
2023-09-24T05:58:22.042Z,77.11
2023-09-24T06:00:48.696Z,77.36
2023-09-24T06:03:15.848Z,77.36
2023-09-24T06:05:42.584Z,77.62
2023-09-24T06:08:09.274Z,77.72
2023-09-24T06:10:38.793Z,77.57
2023-09-24T06:13:05.303Z,77.89
2023-09-24T06:15:31.898Z,77.44
2023-09-24T06:17:58.874Z,77.98
2023-09-24T06:20:26.353Z,77.69
2023-09-24T06:22:54.843Z,77.96
2023-09-24T06:25:21.791Z,77.64
2023-09-24T06:27:48.392Z,77.93
2023-09-24T06:30:15.487Z,78.10
2023-09-24T06:32:42.131Z,79.05
2023-09-24T06:35:09.117Z,77.95
2023-09-24T06:37:35.662Z,78.61
2023-09-24T06:40:02.223Z,78.72
2023-09-24T06:42:28.749Z,78.90
2023-09-24T06:44:55.415Z,78.81
2023-09-24T06:47:22.227Z,78.63
2023-09-24T06:49:50.702Z,78.70
2023-09-24T06:52:17.784Z,78.21
2023-09-24T06:54:44.726Z,78.03
2023-09-24T06:57:11.319Z,78.02
2023-09-24T06:59:37.899Z,78.51
2023-09-24T07:02:04.445Z,78.55
2023-09-24T07:04:31.098Z,78.55
2023-09-24T07:06:57.875Z,79.47
2023-09-24T07:09:24.382Z,79.32
2023-09-24T07:11:51.283Z,79.51
2023-09-24T07:14:20.297Z,79.63
2023-09-24T07:16:48.411Z,79.68
2023-09-24T07:19:14.967Z,79.65
2023-09-24T07:21:41.673Z,79.00
2023-09-24T07:24:09.627Z,78.46
2023-09-24T07:26:36.360Z,78.24
2023-09-24T07:29:03.016Z,79.04
2023-09-24T07:31:31.854Z,79.31
2023-09-24T07:34:00.866Z,79.30
2023-09-24T07:36:33.937Z,79.40
2023-09-24T07:39:05.778Z,79.19
2023-09-24T07:41:32.560Z,78.85
2023-09-24T07:43:59.111Z,79.50
2023-09-24T07:46:25.613Z,78.82
2023-09-24T07:48:52.251Z,78.99
2023-09-24T07:51:18.861Z,78.94
2023-09-24T07:53:48.964Z,78.95
2023-09-24T07:56:15.744Z,78.38
2023-09-24T07:58:43.392Z,77.98
2023-09-24T08:01:11.944Z,78.35
2023-09-24T08:03:39.221Z,78.45
2023-09-24T08:06:07.008Z,78.07
2023-09-24T08:08:49.900Z,78.10
2023-09-24T08:11:18.594Z,77.94
2023-09-24T08:13:45.428Z,77.85
2023-09-24T08:16:12.270Z,77.54
2023-09-24T08:18:39.060Z,77.76
2023-09-24T08:21:05.942Z,77.76
2023-09-24T08:23:33.002Z,77.68
2023-09-24T08:26:00.696Z,76.57
2023-09-24T08:28:27.276Z,76.10
2023-09-24T08:30:54.303Z,76.67
2023-09-24T08:33:20.900Z,76.87
2023-09-24T08:35:47.704Z,76.53
2023-09-24T08:38:17.214Z,76.84
2023-09-24T08:40:43.807Z,76.42
2023-09-24T08:43:15.708Z,76.11
2023-09-24T08:45:43.024Z,76.00
2023-09-24T08:48:10.450Z,75.19
2023-09-24T08:50:43.127Z,75.67
2023-09-24T08:53:14.084Z,74.90
2023-09-24T08:55:48.072Z,74.82
2023-09-24T08:58:14.640Z,74.24
2023-09-24T09:00:43.430Z,74.72
2023-09-24T09:03:10.310Z,74.50
2023-09-24T09:05:39.977Z,75.55
2023-09-24T09:08:06.846Z,75.57
2023-09-24T09:10:35.310Z,75.48
2023-09-24T09:13:09.953Z,74.69
2023-09-24T09:15:39.078Z,74.99
2023-09-24T09:18:06.087Z,75.05
2023-09-24T09:20:45.694Z,75.19
2023-09-24T09:23:19.347Z,74.63
2023-09-24T09:25:51.438Z,75.24
2023-09-24T09:28:24.785Z,74.85
2023-09-24T09:31:06.869Z,75.26
2023-09-24T09:33:38.859Z,74.93
2023-09-24T09:36:05.860Z,75.30
2023-09-24T09:38:32.452Z,74.70
2023-09-24T09:41:00.009Z,75.34
2023-09-24T09:43:29.097Z,74.50
2023-09-24T09:45:56.614Z,75.73
2023-09-24T09:48:28.735Z,73.94
2023-09-24T09:51:00.870Z,73.84
2023-09-24T09:53:32.287Z,73.96
2023-09-24T09:56:05.878Z,73.98
2023-09-24T09:58:37.566Z,74.31
2023-09-24T10:01:08.786Z,74.62
2023-09-24T10:03:42.483Z,73.97
2023-09-24T10:06:11.387Z,73.60
2023-09-24T10:08:43.033Z,73.25
2023-09-24T10:11:12.102Z,73.14
2023-09-24T10:13:47.410Z,73.58
2023-09-24T10:16:37.091Z,73.37
2023-09-24T10:19:09.445Z,73.94
2023-09-24T10:21:44.328Z,74.27
2023-09-24T10:24:11.000Z,73.63
2023-09-24T10:27:02.627Z,73.32
2023-09-24T10:29:47.464Z,73.46
2023-09-24T10:32:15.527Z,74.41
2023-09-24T10:34:58.804Z,74.06
2023-09-24T10:37:26.107Z,72.36
2023-09-24T10:40:14.704Z,74.08
2023-09-24T10:42:45.647Z,73.53
2023-09-24T10:45:13.297Z,73.53
2023-09-24T10:47:44.380Z,73.62
2023-09-24T10:50:19.017Z,73.11
2023-09-24T10:53:00.065Z,72.48
2023-09-24T10:55:34.698Z,72.65
2023-09-24T10:58:05.100Z,72.83
2023-09-24T11:00:33.284Z,72.87
2023-09-24T11:03:02.476Z,72.56
2023-09-24T11:05:30.631Z,73.37
2023-09-24T11:07:57.987Z,73.17
2023-09-24T11:10:26.605Z,72.97
2023-09-24T11:12:55.132Z,73.42
2023-09-24T11:15:24.382Z,72.99
2023-09-24T11:17:52.224Z,73.24
2023-09-24T11:20:22.079Z,71.92
2023-09-24T11:23:10.282Z,72.35
2023-09-24T11:25:37.671Z,72.43
2023-09-24T11:28:06.048Z,72.98
2023-09-24T11:30:46.718Z,72.75
2023-09-24T11:33:21.964Z,73.06
2023-09-24T11:35:52.618Z,72.09
2023-09-24T11:38:35.574Z,72.18
2023-09-24T11:41:14.087Z,71.60
2023-09-24T11:43:42.150Z,71.57
2023-09-24T11:46:27.040Z,72.15
2023-09-24T11:48:54.193Z,72.54
2023-09-24T11:51:24.364Z,72.03
2023-09-24T11:53:51.619Z,72.09
2023-09-24T11:56:18.399Z,71.84
2023-09-24T11:58:44.993Z,71.77
2023-09-24T12:01:13.473Z,72.27
2023-09-24T12:03:41.067Z,71.99
2023-09-24T12:06:08.295Z,71.35
2023-09-24T12:08:36.507Z,71.34
2023-09-24T12:11:03.162Z,71.38
2023-09-24T12:13:31.036Z,70.02
2023-09-24T12:15:57.660Z,72.65
2023-09-24T12:18:24.356Z,73.02
2023-09-24T12:20:51.009Z,73.04
2023-09-24T12:23:18.010Z,71.32
2023-09-24T12:25:45.144Z,70.17
2023-09-24T12:28:15.171Z,71.15
2023-09-24T12:30:42.058Z,72.15
2023-09-24T12:33:12.922Z,71.88
2023-09-24T12:35:42.006Z,72.33
2023-09-24T12:38:09.916Z,71.64
2023-09-24T12:40:36.565Z,71.11
2023-09-24T12:43:03.655Z,70.80
2023-09-24T12:45:30.266Z,72.26
2023-09-24T12:47:56.876Z,71.40
2023-09-24T12:50:23.482Z,68.92
2023-09-24T12:52:50.029Z,69.66
2023-09-24T12:55:17.909Z,70.80
2023-09-24T12:57:46.436Z,72.14
2023-09-24T13:00:14.108Z,72.09
2023-09-24T13:02:45.342Z,72.18
2023-09-24T13:05:19.013Z,72.13
2023-09-24T13:07:47.570Z,72.78
2023-09-24T13:10:16.355Z,72.65
2023-09-24T13:12:44.568Z,72.03
2023-09-24T13:15:12.311Z,71.76
2023-09-24T13:17:39.714Z,72.01
2023-09-24T13:20:06.743Z,70.27
2023-09-24T13:22:34.101Z,70.48
2023-09-24T13:25:00.698Z,70.41
2023-09-24T13:27:27.255Z,70.72
2023-09-24T13:29:54.136Z,71.22
2023-09-24T13:32:22.250Z,71.96
2023-09-24T13:34:49.171Z,72.08
2023-09-24T13:37:15.759Z,71.57
2023-09-24T13:39:42.823Z,73.20
2023-09-24T13:42:09.420Z,73.30
2023-09-24T13:44:36.414Z,73.08
2023-09-24T13:47:03.108Z,73.36
2023-09-24T13:49:29.713Z,73.65
2023-09-24T13:51:56.193Z,73.64
2023-09-24T13:54:22.836Z,73.35
2023-09-24T13:56:49.405Z,73.15
2023-09-24T13:59:16.105Z,73.41
2023-09-24T14:01:42.668Z,73.47
2023-09-24T14:04:09.351Z,72.60
2023-09-24T14:06:36.047Z,72.89
2023-09-24T14:09:21.143Z,73.52
2023-09-24T14:12:06.333Z,74.30
2023-09-24T14:14:32.909Z,72.61
2023-09-24T14:16:59.434Z,72.79
2023-09-24T14:19:25.924Z,71.57
2023-09-24T14:21:52.465Z,70.82
2023-09-24T14:24:18.961Z,71.92
2023-09-24T14:26:45.608Z,73.09
2023-09-24T14:29:12.110Z,72.64
2023-09-24T14:31:38.774Z,71.61
2023-09-24T14:34:05.343Z,70.63
2023-09-24T14:36:31.928Z,70.70
2023-09-24T14:39:01.071Z,70.28
2023-09-24T14:41:27.858Z,70.32
2023-09-24T14:43:54.407Z,69.86
2023-09-24T14:46:21.328Z,69.43
2023-09-24T14:48:48.120Z,69.69
2023-09-24T14:51:18.994Z,70.13
2023-09-24T14:53:46.170Z,69.53
2023-09-24T14:56:19.715Z,70.20
2023-09-24T14:58:46.300Z,70.67
2023-09-24T15:01:12.926Z,70.79
2023-09-24T15:03:39.931Z,70.91
2023-09-24T15:06:06.531Z,71.80
2023-09-24T15:08:34.041Z,70.99
2023-09-24T15:11:04.474Z,70.60
2023-09-24T15:13:31.652Z,71.25
2023-09-24T15:15:58.192Z,71.17
2023-09-24T15:18:24.929Z,71.50
2023-09-24T15:20:52.329Z,72.14
2023-09-24T15:23:19.400Z,71.17
2023-09-24T15:25:46.731Z,72.16
2023-09-24T15:28:14.212Z,71.24
2023-09-24T15:30:43.788Z,72.03
2023-09-24T15:33:11.147Z,71.97
2023-09-24T15:35:38.341Z,71.75
2023-09-24T15:38:07.936Z,72.85
2023-09-24T15:40:36.071Z,72.04
2023-09-24T15:43:07.384Z,72.10
2023-09-24T15:45:34.715Z,72.66
2023-09-24T15:48:04.925Z,72.23
2023-09-24T15:50:33.325Z,72.51
2023-09-24T15:53:00.356Z,71.91
2023-09-24T15:55:27.043Z,71.54
2023-09-24T15:57:53.574Z,71.14
2023-09-24T16:00:20.738Z,71.28
2023-09-24T16:02:47.622Z,71.34
2023-09-24T16:05:14.943Z,71.57
2023-09-24T16:07:41.895Z,71.33
2023-09-24T16:10:09.236Z,71.42
2023-09-24T16:12:36.354Z,71.77
2023-09-24T16:15:03.047Z,71.82
2023-09-24T16:17:30.963Z,71.35
2023-09-24T16:19:57.866Z,71.45
2023-09-24T16:22:24.662Z,71.22
2023-09-24T16:24:54.942Z,70.87
2023-09-24T16:27:23.195Z,70.80
2023-09-24T16:29:51.688Z,70.65
2023-09-24T16:32:19.474Z,70.56
2023-09-24T16:34:46.906Z,70.78
2023-09-24T16:37:13.531Z,70.78
2023-09-24T16:39:40.250Z,71.66
2023-09-24T16:42:07.058Z,71.43
2023-09-24T16:44:34.092Z,71.70
2023-09-24T16:47:02.424Z,71.90
2023-09-24T16:49:31.283Z,71.76
2023-09-24T16:51:58.489Z,71.81
2023-09-24T16:54:27.193Z,71.60
2023-09-24T16:56:54.408Z,71.67
2023-09-24T16:59:21.474Z,71.60
2023-09-24T17:01:48.924Z,71.83
2023-09-24T17:04:15.720Z,71.70
2023-09-24T17:06:42.452Z,72.13
2023-09-24T17:09:10.572Z,72.27
2023-09-24T17:11:37.396Z,72.00
2023-09-24T17:14:04.183Z,72.12
2023-09-24T17:16:31.055Z,72.21
2023-09-24T17:18:57.655Z,72.01
2023-09-24T17:21:24.523Z,71.99
2023-09-24T17:23:51.375Z,72.15
2023-09-24T17:26:19.354Z,72.13
2023-09-24T17:28:45.913Z,72.19
2023-09-24T17:31:13.450Z,72.55
2023-09-24T17:33:40.953Z,72.15
2023-09-24T17:36:10.767Z,71.95
2023-09-24T17:38:38.256Z,72.27
2023-09-24T17:41:04.826Z,72.16
2023-09-24T17:43:31.603Z,71.91
2023-09-24T17:46:08.232Z,72.22
2023-09-24T17:48:38.721Z,71.93
2023-09-24T17:51:07.510Z,72.08
2023-09-24T17:53:34.883Z,72.05
2023-09-24T17:56:03.226Z,72.41
2023-09-24T17:58:30.131Z,72.52
2023-09-24T18:01:15.858Z,72.42
2023-09-24T18:03:44.805Z,72.63
2023-09-24T18:06:12.773Z,72.48
2023-09-24T18:08:39.586Z,72.59
2023-09-24T18:11:06.309Z,72.89
2023-09-24T18:13:33.282Z,72.72
2023-09-24T18:16:00.991Z,72.54
2023-09-24T18:18:29.072Z,72.53
2023-09-24T18:20:57.969Z,72.23
2023-09-24T18:23:25.652Z,72.15
2023-09-24T18:25:52.571Z,72.24
2023-09-24T18:28:19.579Z,72.14
2023-09-24T18:30:47.228Z,72.37
2023-09-24T18:33:14.563Z,71.95
2023-09-24T18:35:42.708Z,72.15
2023-09-24T18:38:10.289Z,72.35
2023-09-24T18:40:40.050Z,72.23
2023-09-24T18:43:07.411Z,72.44
2023-09-24T18:45:35.228Z,72.54
2023-09-24T18:48:02.216Z,72.25
2023-09-24T18:50:29.845Z,72.47
2023-09-24T18:52:56.738Z,72.54
2023-09-24T18:55:23.827Z,72.66
2023-09-24T18:57:50.367Z,72.70
2023-09-24T19:00:16.988Z,72.56
2023-09-24T19:02:48.990Z,72.48
2023-09-24T19:05:17.228Z,72.74
2023-09-24T19:07:44.274Z,72.42
2023-09-24T19:10:15.578Z,72.48
2023-09-24T19:12:48.732Z,72.65
2023-09-24T19:15:17.113Z,72.73
2023-09-24T19:17:44.849Z,72.64
2023-09-24T19:20:12.141Z,72.93
2023-09-24T19:22:38.794Z,73.18
2023-09-24T19:25:05.723Z,73.42
2023-09-24T19:27:32.324Z,73.39
2023-09-24T19:29:59.951Z,73.06
2023-09-24T19:32:27.514Z,72.94
2023-09-24T19:34:54.566Z,73.02
2023-09-24T19:37:21.212Z,72.73
2023-09-24T19:39:47.850Z,72.85
2023-09-24T19:42:14.464Z,72.96
2023-09-24T19:44:41.165Z,73.00
2023-09-24T19:47:07.872Z,72.47
2023-09-24T19:49:34.531Z,72.38
2023-09-24T19:52:01.041Z,72.52
2023-09-24T19:54:29.239Z,72.17
2023-09-24T19:56:56.197Z,72.12
2023-09-24T19:59:22.833Z,71.67
2023-09-24T20:01:49.306Z,72.33
2023-09-24T20:04:15.869Z,72.02
2023-09-24T20:06:42.783Z,71.92
2023-09-24T20:09:10.762Z,72.14
2023-09-24T20:11:40.356Z,71.86
2023-09-24T20:14:09.669Z,71.59
2023-09-24T20:16:36.284Z,71.86
2023-09-24T20:19:05.254Z,71.90
2023-09-24T20:21:33.152Z,71.49
2023-09-24T20:24:00.535Z,71.90
2023-09-24T20:26:27.199Z,72.07
2023-09-24T20:28:53.754Z,71.90
2023-09-24T20:31:21.432Z,71.73
2023-09-24T20:36:18.105Z,71.66
2023-09-24T20:38:44.768Z,71.84
2023-09-24T20:41:14.792Z,71.73
2023-09-24T20:43:42.061Z,71.85
2023-09-24T20:46:11.235Z,72.30
2023-09-24T20:48:37.816Z,72.23
2023-09-24T20:51:04.358Z,72.10
2023-09-24T20:53:31.259Z,72.07
2023-09-24T20:55:57.782Z,72.41
2023-09-24T20:58:24.372Z,72.41
2023-09-24T21:00:52.056Z,73.06
2023-09-24T21:03:18.792Z,73.67
2023-09-24T21:05:45.329Z,73.47
2023-09-24T21:08:11.794Z,73.78
2023-09-24T21:10:39.500Z,73.87
2023-09-24T21:13:06.000Z,73.54
2023-09-24T21:15:32.506Z,73.24
2023-09-24T21:17:59.122Z,72.98
2023-09-24T21:20:25.884Z,72.93
2023-09-24T21:22:52.389Z,72.95
2023-09-24T21:25:18.922Z,72.84
2023-09-24T21:27:45.873Z,73.03
2023-09-24T21:30:12.930Z,73.03
2023-09-24T21:32:39.558Z,72.95
2023-09-24T21:35:06.282Z,72.53
2023-09-24T21:37:32.867Z,72.32
2023-09-24T21:39:59.427Z,72.47
2023-09-24T21:42:25.950Z,72.93
2023-09-24T21:44:52.538Z,72.78
2023-09-24T21:47:19.063Z,72.41
2023-09-24T21:49:45.532Z,72.06
2023-09-24T21:52:12.660Z,71.93
2023-09-24T21:54:39.231Z,71.67
2023-09-24T21:57:05.789Z,71.63
2023-09-24T21:59:32.342Z,71.77
2023-09-24T22:01:58.995Z,71.85
2023-09-24T22:04:25.672Z,71.96
2023-09-24T22:06:52.436Z,72.27
2023-09-24T22:09:19.285Z,72.17
2023-09-24T22:11:46.132Z,72.05
2023-09-24T22:14:13.779Z,71.94
2023-09-24T22:16:41.026Z,71.96
2023-09-24T22:19:07.925Z,72.19
2023-09-24T22:21:34.851Z,71.83
2023-09-24T22:24:01.978Z,71.82
2023-09-24T22:26:28.837Z,72.42
2023-09-24T22:28:55.309Z,72.03
2023-09-24T22:31:21.846Z,71.79
2023-09-24T22:33:48.525Z,71.79
2023-09-24T22:36:18.994Z,71.84
2023-09-24T22:38:45.808Z,71.65
2023-09-24T22:41:12.536Z,71.51
2023-09-24T22:43:39.007Z,71.51
2023-09-24T22:46:05.574Z,71.52
2023-09-24T22:48:32.101Z,71.32
2023-09-24T22:50:59.028Z,71.22
2023-09-24T22:53:26.038Z,71.50
2023-09-24T22:55:52.780Z,71.38
2023-09-24T22:58:19.333Z,71.57
2023-09-24T23:00:47.478Z,71.64
2023-09-24T23:03:14.188Z,71.83
2023-09-24T23:05:41.783Z,71.39
2023-09-24T23:08:08.652Z,71.32
2023-09-24T23:10:35.327Z,71.63
2023-09-24T23:13:01.902Z,71.79
2023-09-24T23:15:28.401Z,71.50
2023-09-24T23:17:54.944Z,71.30
2023-09-24T23:20:21.623Z,70.94
2023-09-24T23:22:51.092Z,70.55
2023-09-24T23:25:20.427Z,70.29
2023-09-24T23:27:47.629Z,70.70
2023-09-24T23:30:14.386Z,70.88
2023-09-24T23:32:42.214Z,71.03
2023-09-24T23:35:09.318Z,71.04
2023-09-24T23:37:35.983Z,71.03
2023-09-24T23:40:05.030Z,71.06
2023-09-24T23:42:31.926Z,71.30
2023-09-24T23:44:58.451Z,71.09
2023-09-24T23:47:27.898Z,71.07
2023-09-24T23:49:54.505Z,70.25
2023-09-24T23:52:20.999Z,70.43
2023-09-24T23:54:48.188Z,71.16
2023-09-24T23:57:14.779Z,71.14
2023-09-24T23:59:41.436Z,71.27
